createdAt,value
2022-12-18T00:00:10.508Z,34.67
2022-12-18T00:05:13.360Z,33.30
2022-12-18T00:10:16.397Z,33.67
2022-12-18T00:15:19.475Z,38.00
2022-12-18T00:20:26.640Z,30.00
2022-12-18T00:25:29.586Z,31.77
2022-12-18T00:30:32.434Z,32.07
2022-12-18T00:35:35.387Z,28.47
2022-12-18T00:40:38.322Z,30.73
2022-12-18T00:45:42.206Z,25.90
2022-12-18T00:50:45.232Z,24.77
2022-12-18T00:55:48.462Z,30.70
2022-12-18T01:00:51.304Z,33.30
2022-12-18T01:05:54.284Z,29.60
2022-12-18T01:10:57.196Z,30.87
2022-12-18T01:16:00.697Z,28.67
2022-12-18T01:21:12.948Z,25.67
2022-12-18T01:26:17.442Z,32.30
2022-12-18T01:31:24.350Z,31.77
2022-12-18T01:36:30.832Z,32.97
2022-12-18T01:41:54.425Z,29.17
2022-12-18T01:46:57.383Z,27.70
2022-12-18T01:52:00.407Z,26.87
2022-12-18T01:57:03.541Z,31.50
2022-12-18T02:02:07.344Z,28.73
2022-12-18T02:08:13.552Z,26.87
2022-12-18T02:14:23.773Z,33.87
2022-12-18T02:19:30.216Z,27.17
2022-12-18T02:25:14.126Z,33.50
2022-12-18T02:30:18.398Z,28.97
2022-12-18T02:35:30.069Z,26.00
2022-12-18T02:40:33.883Z,34.40
2022-12-18T02:45:36.957Z,28.70
2022-12-18T02:50:50.205Z,32.07
2022-12-18T02:56:25.400Z,31.97
2022-12-18T03:02:19.512Z,27.87
2022-12-18T03:07:37.769Z,25.23
2022-12-18T03:12:55.601Z,24.97
2022-12-18T03:18:23.900Z,33.37
2022-12-18T03:23:35.956Z,29.50
2022-12-18T03:28:46.986Z,23.35
2022-12-18T03:33:57.738Z,26.67
2022-12-18T03:39:00.740Z,32.93
2022-12-18T03:44:34.761Z,29.57
2022-12-18T03:50:12.282Z,31.37
2022-12-18T03:55:16.332Z,28.93
2022-12-18T04:00:20.736Z,25.57
2022-12-18T04:05:27.185Z,28.43
2022-12-18T04:10:30.662Z,23.13
2022-12-18T04:15:37.553Z,26.70
2022-12-18T04:20:40.577Z,30.03
2022-12-18T04:25:43.578Z,29.13
2022-12-18T04:30:49.223Z,36.77
2022-12-18T04:35:52.264Z,36.47
2022-12-18T04:40:55.101Z,26.37
2022-12-18T04:46:09.362Z,25.83
2022-12-18T04:51:12.398Z,34.87
2022-12-18T04:56:16.725Z,32.70
2022-12-18T05:01:20.521Z,30.70
2022-12-18T05:06:23.431Z,33.90
2022-12-18T05:11:26.302Z,29.40
2022-12-18T05:16:29.334Z,27.40
2022-12-18T05:21:32.373Z,26.03
2022-12-18T05:26:35.802Z,28.33
2022-12-18T05:31:39.810Z,25.70
2022-12-18T05:36:42.981Z,20.43
2022-12-18T05:41:46.184Z,20.17
2022-12-18T05:46:49.879Z,30.80
2022-12-18T05:51:52.759Z,31.50
2022-12-18T05:56:55.535Z,33.80
2022-12-18T06:01:58.651Z,27.53
2022-12-18T06:07:04.140Z,29.27
2022-12-18T06:12:07.472Z,38.90
2022-12-18T06:17:10.390Z,37.93
2022-12-18T06:22:13.352Z,26.10
2022-12-18T06:27:16.214Z,26.63
2022-12-18T06:44:00.314Z,31.23
2022-12-18T06:49:03.939Z,37.67
2022-12-18T06:54:06.873Z,29.00
2022-12-18T06:59:09.753Z,29.67
2022-12-18T07:04:13.074Z,20.33
2022-12-18T07:09:15.993Z,25.87
2022-12-18T07:14:19.752Z,34.00
2022-12-18T07:19:25.663Z,39.97
2022-12-18T07:24:29.439Z,44.50
2022-12-18T07:29:32.490Z,40.40
2022-12-18T07:34:35.853Z,39.87
2022-12-18T07:39:39.579Z,30.90
2022-12-18T07:44:42.547Z,35.00
2022-12-18T07:49:45.334Z,26.03
2022-12-18T07:54:50.921Z,34.27
2022-12-18T07:59:53.868Z,54.70
2022-12-18T08:04:56.723Z,40.63
2022-12-18T08:09:59.559Z,43.17
2022-12-18T08:15:02.735Z,34.50
2022-12-18T08:20:06.357Z,31.40
2022-12-18T08:25:10.202Z,32.63
2022-12-18T08:30:13.636Z,31.97
2022-12-18T08:35:18.811Z,30.93
2022-12-18T08:40:21.747Z,28.00
2022-12-18T08:45:25.807Z,36.40
2022-12-18T08:50:29.210Z,36.37
2022-12-18T08:55:32.271Z,32.07
2022-12-18T09:00:35.193Z,39.23
2022-12-18T09:05:38.079Z,37.77
2022-12-18T09:10:49.699Z,36.97
2022-12-18T09:15:55.432Z,43.72
2022-12-18T09:20:58.319Z,45.43
2022-12-18T09:26:01.438Z,47.33
2022-12-18T09:31:09.884Z,39.13
2022-12-18T09:36:17.694Z,44.97
2022-12-18T09:41:48.402Z,36.90
2022-12-18T09:47:20.058Z,43.10
2022-12-18T09:52:41.291Z,44.30
2022-12-18T09:57:53.379Z,39.40
2022-12-18T10:03:15.263Z,40.50
2022-12-18T10:09:21.669Z,38.47
2022-12-18T10:14:57.434Z,41.30
2022-12-18T10:20:17.104Z,45.47
2022-12-18T10:25:41.072Z,49.90
2022-12-18T10:30:44.657Z,54.17
2022-12-18T10:35:51.403Z,50.43
2022-12-18T10:40:58.566Z,41.70
2022-12-18T10:46:09.814Z,42.13
2022-12-18T10:51:31.657Z,39.53
2022-12-18T10:56:37.818Z,38.20
2022-12-18T11:01:58.836Z,37.67
2022-12-18T11:07:09.061Z,44.40
2022-12-18T11:12:11.881Z,38.47
2022-12-18T11:17:26.715Z,41.97
2022-12-18T11:22:36.349Z,44.03
2022-12-18T11:27:41.210Z,35.33
2022-12-18T11:33:02.248Z,35.73
2022-12-18T11:38:36.168Z,42.67
2022-12-18T11:43:47.319Z,37.93
2022-12-18T11:49:36.033Z,52.70
2022-12-18T11:54:39.719Z,39.37
2022-12-18T12:00:12.805Z,35.63
2022-12-18T12:05:49.846Z,32.77
2022-12-18T12:11:20.539Z,35.40
2022-12-18T12:16:33.775Z,32.50
2022-12-18T12:22:05.718Z,54.77
2022-12-18T12:28:05.844Z,38.80
2022-12-18T12:33:32.543Z,62.17
2022-12-18T12:38:52.264Z,36.23
2022-12-18T12:44:00.304Z,26.20
2022-12-18T12:49:11.030Z,25.17
2022-12-18T12:54:25.850Z,34.92
2022-12-18T13:00:04.178Z,29.13
2022-12-18T13:05:35.382Z,31.70
2022-12-18T13:10:43.189Z,27.93
2022-12-18T13:16:06.568Z,35.13
2022-12-18T13:21:28.076Z,25.07
2022-12-18T13:26:32.970Z,57.10
2022-12-18T13:31:42.201Z,26.00
2022-12-18T13:36:47.298Z,37.27
2022-12-18T13:42:32.394Z,38.33
2022-12-18T13:47:39.032Z,17.47
2022-12-18T13:52:44.645Z,34.53
2022-12-18T13:57:47.560Z,46.27
2022-12-18T14:02:51.987Z,59.53
2022-12-18T14:08:16.213Z,39.40
2022-12-18T14:13:34.978Z,38.67
2022-12-18T14:18:45.335Z,40.60
2022-12-18T14:23:48.461Z,29.77
2022-12-18T14:28:51.998Z,32.50
2022-12-18T14:33:55.527Z,49.33
2022-12-18T14:39:00.353Z,40.00
2022-12-18T14:44:09.427Z,47.73
2022-12-18T14:49:35.217Z,63.27
2022-12-18T14:54:39.333Z,50.03
2022-12-18T14:59:42.442Z,69.77
2022-12-18T15:04:46.023Z,86.23
2022-12-18T15:10:14.116Z,57.43
2022-12-18T15:15:38.325Z,57.60
2022-12-18T15:20:50.294Z,63.50
2022-12-18T15:31:14.372Z,51.13
2022-12-18T15:36:21.337Z,71.53
2022-12-18T15:41:32.868Z,52.55
2022-12-18T15:46:37.848Z,50.83
2022-12-18T15:51:41.668Z,52.33
2022-12-18T15:57:02.885Z,48.53
2022-12-18T16:02:18.127Z,61.00
2022-12-18T16:07:24.877Z,61.30
2022-12-18T16:12:28.628Z,50.03
2022-12-18T16:17:32.013Z,69.87
2022-12-18T16:22:34.827Z,60.17
2022-12-18T16:27:37.712Z,49.33
2022-12-18T16:32:40.585Z,42.97
2022-12-18T16:37:44.298Z,46.33
2022-12-18T16:42:47.721Z,65.23
2022-12-18T16:47:50.536Z,53.83
2022-12-18T16:52:53.436Z,57.83
2022-12-18T16:57:57.413Z,49.97
2022-12-18T17:03:00.452Z,45.87
2022-12-18T17:08:03.982Z,52.33
2022-12-18T17:13:06.864Z,52.20
2022-12-18T17:18:09.840Z,49.43
2022-12-18T17:23:12.676Z,41.93
2022-12-18T17:28:15.564Z,45.37
2022-12-18T17:33:18.781Z,57.80
2022-12-18T17:38:21.674Z,30.83
2022-12-18T17:43:24.565Z,49.50
2022-12-18T17:48:27.424Z,48.63
2022-12-18T17:53:31.411Z,51.37
2022-12-18T17:58:37.826Z,50.27
2022-12-18T18:03:42.489Z,54.30
2022-12-18T18:08:45.837Z,67.03
2022-12-18T18:14:04.656Z,59.83
2022-12-18T18:19:12.386Z,53.77
2022-12-18T18:24:20.170Z,68.67
2022-12-18T18:29:26.911Z,71.80
2022-12-18T18:34:33.045Z,60.50
2022-12-18T18:39:36.581Z,45.60
2022-12-18T18:44:41.369Z,68.80
2022-12-18T18:49:47.433Z,47.87
2022-12-18T18:55:11.469Z,43.07
2022-12-18T19:00:16.488Z,50.67
2022-12-18T19:05:19.370Z,45.07
2022-12-18T19:10:22.208Z,39.67
2022-12-18T19:15:25.178Z,34.83
2022-12-18T19:20:28.551Z,31.37
2022-12-18T19:25:40.697Z,44.60
2022-12-18T19:30:45.928Z,45.23
2022-12-18T19:35:49.365Z,48.17
2022-12-18T19:40:52.567Z,61.77
2022-12-18T19:45:56.347Z,44.37
2022-12-18T19:50:59.286Z,55.50
2022-12-18T19:56:11.771Z,41.87
2022-12-18T20:01:16.918Z,39.57
2022-12-18T20:06:36.298Z,54.77
2022-12-18T20:11:41.993Z,48.87
2022-12-18T20:16:45.198Z,35.90
2022-12-18T20:21:48.420Z,39.90
2022-12-18T20:26:51.204Z,36.83
2022-12-18T20:31:54.269Z,53.50
2022-12-18T20:36:57.133Z,66.97
2022-12-18T20:42:00.871Z,114.27
2022-12-18T20:47:05.747Z,95.53
2022-12-18T20:52:11.840Z,93.23
2022-12-18T20:57:15.247Z,74.33
2022-12-18T21:02:21.286Z,72.13
2022-12-18T21:07:24.408Z,68.17
2022-12-18T21:12:42.737Z,64.27
2022-12-18T21:17:53.914Z,71.30
2022-12-18T21:22:57.721Z,62.53
2022-12-18T21:28:07.175Z,54.43
2022-12-18T21:33:10.992Z,68.67
2022-12-18T21:38:14.295Z,68.47
2022-12-18T21:43:35.383Z,48.10
2022-12-18T21:48:43.350Z,57.43
2022-12-18T21:53:46.276Z,56.63
2022-12-18T21:58:56.800Z,49.97
2022-12-18T22:04:00.353Z,55.20
2022-12-18T22:09:04.532Z,65.37
2022-12-18T22:14:07.879Z,65.90
2022-12-18T22:19:12.524Z,63.67
2022-12-18T22:24:22.282Z,60.40
2022-12-18T22:29:44.684Z,65.00
2022-12-18T22:34:47.559Z,59.37
2022-12-18T22:39:50.460Z,60.97
2022-12-18T22:44:53.409Z,94.60
2022-12-18T22:49:56.317Z,52.63
2022-12-18T22:54:59.207Z,48.07
2022-12-18T23:00:02.731Z,62.67
2022-12-18T23:05:06.866Z,72.47
2022-12-18T23:10:10.070Z,47.73
2022-12-18T23:15:12.905Z,63.93
2022-12-18T23:20:17.651Z,58.03
2022-12-18T23:25:20.576Z,58.03
2022-12-18T23:30:23.940Z,65.30
2022-12-18T23:35:26.880Z,65.40
2022-12-18T23:40:30.209Z,74.40
2022-12-18T23:45:38.665Z,60.57
2022-12-18T23:50:41.500Z,53.70
2022-12-18T23:55:45.579Z,57.80
